Airfield :
LOGIN :

Register | Disclaimer

   EN    FR    IT 

 










Legend :    VFR   Marginal VFR   IFR   Intensive IFR   Very Intensive IFR
Visi :
Ceiling :
>= 8 km
>= 3000ft
5 to 8 km
1000 to 3000 ft
1500m to 5 km
500 to 1000 ft
800 to 1500m
200 to 500 ft
< 800m
< 200 ft
Symbols :   Thunderstorms  Fog  Heavy snow  Heavy precipitations  Wind > 20 kt
SIGMETs :     Misc.  Thunderstorms  Icing  Turbulence  Mountain Waves  Volcanic Ashes







- Airport Elevation : 74 ft
- IATA code : EIN


EHEH - Eindhoven

CURRENT METAR :
  • 202255Z AUTO 11007KT 070V140 9999 SCT076 04/M00 Q1009 BLU

EXPIRED METARs :
  • 202225Z AUTO 10007KT 070V140 9999 SCT045 BKN049 BKN059 04/M00 Q1008 BLU
  • 202155Z AUTO 10008KT 060V120 9999 FEW015CB BKN048 OVC053 03/M00 Q1008 BLU
  • 202149Z AUTO 10007KT 060V120 9999 FEW015CB BKN045 OVC050 03/00 Q1008 BLU
  • 202125Z AUTO 09007KT 060V120 9999 OVC039 03/00 Q1008 BLU 07010KT 9999 SCT025 BKN030
  • 202055Z AUTO 08007KT 330V120 9999 SCT076 BKN084 BKN090 03/M00 Q1007 BLU 07010KT 9999 SCT025 BKN030
  • 202029Z AUTO 08007KT 050V110 9999 FEW024 03/M00 Q1007 BLU 07010KT 9999 SCT025 BKN030
  • 202025Z AUTO 08008KT 050V120 9999 SCT024 03/M00 Q1007 WHT 07010KT 9999 SCT025 BKN030

TAF TAF EHEH
Valid from the 20 at 18:00 until the 22 at 00:00 UTC


201659Z 2018/2124 09010KT 9999 SCT025 BKN030
BECMG 2022/2024 11008KT
No reported NOTAMs for that airfield.



MET'MAP, your aeronautical weather chart ! - Copyright ORBIFLY December 2007 - Disclaimer

ORBIFLY MET'MAP TEAM :

Programming & Development : Alexandra Zaïnal
Concept & Development : Baudouin d'Aumeries
Co-Development & Prog : Marc-Olivier Méhu
Technical & hardware support : Manuel Goepfert

Contact : metmap@orbifly.com




SOURCES & CREDITS :

   NOAA